Terminal Aerodrome Forecast
Issued by NWS

Home | Current Version | Previous Version | Text Only | Print | Product List | Glossary On
Versions: 1 2 3 4 5 6 7 8 9 10 11 12 13 14 15 16 17 18 19 20
000
FTUS43 KICT 101200 AAA
TAFHUT
TAF AMD
KHUT 101237Z 1013/1112 15012KT P6SM VCTS SCT060CB OVC100
      TEMPO 1013/1014 6SM -TSRA SCT035 OVC060CB
     FM101700 16017G24KT P6SM FEW050 SCT100
     FM110200 16012KT P6SM SKC=

USA.gov is the U.S. government's official web portal to all federal, state and local government web resources and services.